Time;durP1;ratioP1;P1;durP2;ratioP2;P2;SDS_P1;SDS_P2;PMS_P1;PMS_P2;Temp;Humidity;BMP_temperature;BMP_pressure;BME280_temperature;BME280_humidity;BME280_pressure;Samples;Min_cycle;Max_cycle;Signal;HPM_P1;HPM_P2
2021/12/10 00:01:16;;;;;;;5.60;4.10;;;;;;;3.06;90.14;99610.34;1734356;80;21111;-54
2021/12/10 00:03:49;;;;;;;3.43;3.10;;;;;;;3.09;90.17;99603.61;1731880;80;21100;-55
2021/12/10 00:06:25;;;;;;;4.60;4.10;;;;;;;3.10;90.19;99608.02;1736237;80;21507;-56
2021/12/10 00:08:56;;;;;;;4.23;3.83;;;;;;;3.13;90.22;99606.64;1729050;80;20977;-56
2021/12/10 00:11:28;;;;;;;4.07;3.70;;;;;;;3.15;90.23;99600.84;1735693;80;21839;-54
2021/12/10 00:13:55;;;;;;;5.30;3.90;;;;;;;3.16;90.22;99599.91;1736968;80;21403;-56
2021/12/10 00:16:21;;;;;;;5.47;4.17;;;;;;;3.18;90.22;99602.09;1739184;80;21851;-56
2021/12/10 00:19:04;;;;;;;4.97;3.80;;;;;;;3.19;90.19;99604.73;1728521;80;21513;-56
2021/12/10 00:21:24;;;;;;;11.90;5.07;;;;;;;3.20;90.20;99606.93;1749988;81;21355;-55
2021/12/10 00:23:51;;;;;;;8.13;4.97;;;;;;;3.22;90.26;99612.66;1753700;81;21128;-56
2021/12/10 00:26:20;;;;;;;12.93;4.27;;;;;;;3.23;90.22;99613.53;1756375;81;21385;-54
2021/12/10 00:28:47;;;;;;;18.53;6.23;;;;;;;3.22;90.20;99616.64;1757084;81;20897;-55
2021/12/10 00:31:45;;;;;;;7.80;6.07;;;;;;;3.22;90.18;99611.77;1755207;81;20883;-54
2021/12/10 00:34:09;;;;;;;5.58;4.28;;;;;;;3.20;90.17;99606.93;1750977;81;21327;-53
2021/12/10 00:36:36;;;;;;;8.00;4.50;;;;;;;3.18;90.12;99608.74;1751471;81;22006;-53
2021/12/10 00:39:10;;;;;;;7.17;4.10;;;;;;;3.17;90.14;99606.98;1756452;81;20974;-55
2021/12/10 00:41:36;;;;;;;5.97;5.00;;;;;;;3.16;90.26;99601.23;1754057;81;21109;-52
2021/12/10 00:44:04;;;;;;;7.23;4.70;;;;;;;3.17;90.37;99606.98;1753072;81;21062;-53
2021/12/10 00:46:31;;;;;;;6.00;4.20;;;;;;;3.18;90.37;99612.28;1757353;81;20954;-56
2021/12/10 00:48:58;;;;;;;3.77;3.33;;;;;;;3.20;90.39;99608.27;1756601;81;21044;-54
2021/12/10 00:51:24;;;;;;;9.00;3.37;;;;;;;3.21;90.44;99606.91;1754616;81;21112;-54
2021/12/10 00:53:52;;;;;;;5.60;4.47;;;;;;;3.23;90.42;99604.22;1752027;81;21493;-55
2021/12/10 00:56:18;;;;;;;5.80;3.43;;;;;;;3.24;90.49;99604.16;1752640;81;21058;-53
2021/12/10 00:58:44;;;;;;;4.50;4.07;;;;;;;3.30;90.62;99599.19;1753814;81;21013;-53
2021/12/10 01:01:16;;;;;;;5.10;3.87;;;;;;;3.31;90.54;99599.16;1757169;81;21123;-54
2021/12/10 01:03:49;;;;;;;7.80;4.80;;;;;;;3.33;90.50;99592.45;1757871;81;20919;-53
2021/12/10 01:06:17;;;;;;;15.13;4.43;;;;;;;3.33;90.55;99591.12;1756942;81;21659;-53
2021/12/10 01:08:47;;;;;;;9.70;6.00;;;;;;;3.34;90.63;99592.88;1755828;81;20915;-55
2021/12/10 01:11:20;;;;;;;8.70;4.40;;;;;;;3.34;90.62;99591.09;1756844;81;21511;-54
2021/12/10 01:13:50;;;;;;;8.07;4.20;;;;;;;3.32;90.53;99590.23;1758658;81;21099;-53
2021/12/10 01:24:48;;;;;;;3.23;3.00;;;;;;;3.32;90.58;99572.95;1751038;80;21366;-54
2021/12/10 01:27:14;;;;;;;4.20;3.30;;;;;;;3.36;90.72;99566.67;1746026;80;27808;-52
2021/12/10 01:29:41;;;;;;;5.47;3.43;;;;;;;3.37;90.71;99559.11;1746872;80;20900;-55
2021/12/10 01:32:09;;;;;;;5.87;3.43;;;;;;;3.38;90.71;99555.55;1747542;80;20875;-54
2021/12/10 01:34:35;;;;;;;5.83;2.73;;;;;;;3.43;90.80;99551.43;1747825;80;20905;-54
2021/12/10 01:37:02;;;;;;;6.63;2.37;;;;;;;3.44;90.79;99553.19;1746983;80;21023;-54
2021/12/10 01:39:33;;;;;;;14.80;2.63;;;;;;;3.43;90.80;99552.31;1747756;80;21477;-54
2021/12/10 01:42:14;;;;;;;10.90;3.43;;;;;;;3.43;90.76;99556.30;1747136;80;20915;-53
2021/12/10 01:44:32;;;;;;;3.97;3.40;;;;;;;3.39;90.68;99547.11;1747601;80;20966;-54
2021/12/10 01:47:03;;;;;;;3.17;2.47;;;;;;;3.36;90.69;99544.05;1747574;80;21121;-53
2021/12/10 01:49:31;;;;;;;3.37;2.23;;;;;;;3.37;90.70;99551.13;1745525;80;21180;-56
2021/12/10 01:51:57;;;;;;;2.83;2.23;;;;;;;3.39;90.81;99543.12;1746663;80;22288;-52
2021/12/10 01:54:28;;;;;;;1.83;1.40;;;;;;;3.42;90.99;99541.70;1744724;80;21366;-56
2021/12/10 01:56:56;;;;;;;4.53;2.10;;;;;;;3.47;91.00;99553.59;1741673;80;21472;-52
2021/12/10 01:59:26;;;;;;;2.07;1.80;;;;;;;3.51;90.96;99551.25;1744617;80;22381;-55
2021/12/10 02:01:56;;;;;;;2.00;1.80;;;;;;;3.52;90.99;99549.02;1742840;80;21044;-55
2021/12/10 02:04:24;;;;;;;3.40;2.13;;;;;;;3.54;91.06;99546.75;1741606;80;21508;-55
2021/12/10 02:06:51;;;;;;;7.97;2.80;;;;;;;3.56;91.02;99553.38;1746703;80;20878;-55
2021/12/10 02:09:18;;;;;;;2.03;1.87;;;;;;;3.55;90.99;99547.17;1745176;80;21223;-54
2021/12/10 02:11:44;;;;;;;5.17;2.70;;;;;;;3.56;90.98;99546.72;1749015;80;20995;-56
2021/12/10 02:14:11;;;;;;;2.37;2.17;;;;;;;3.56;90.94;99550.72;1716699;81;21115;-56
2021/12/10 02:16:37;;;;;;;2.83;2.53;;;;;;;3.57;91.01;99553.34;1744179;80;21140;-56
2021/12/10 02:19:05;;;;;;;2.77;2.50;;;;;;;3.59;91.00;99563.93;1745356;80;21061;-53
2021/12/10 02:21:34;;;;;;;3.93;3.13;;;;;;;3.59;91.03;99561.27;1743899;80;21076;-53
2021/12/10 02:24:00;;;;;;;3.20;2.50;;;;;;;3.62;91.12;99552.77;1744976;80;21070;-56
2021/12/10 02:26:31;;;;;;;4.63;2.63;;;;;;;3.65;91.19;99554.04;1745093;80;21464;-53
2021/12/10 02:28:58;;;;;;;5.00;3.63;;;;;;;3.70;91.26;99566.77;1743740;80;21207;-57
2021/12/10 02:31:24;;;;;;;3.80;3.47;;;;;;;3.73;91.26;99567.17;1743056;80;21035;-57
2021/12/10 02:33:50;;;;;;;6.73;4.47;;;;;;;3.73;91.26;99568.05;1746434;80;21038;-57
2021/12/10 02:36:17;;;;;;;4.90;4.40;;;;;;;3.75;91.28;99553.34;1741927;80;21123;-57
2021/12/10 02:38:48;;;;;;;5.20;3.47;;;;;;;3.78;91.33;99553.28;1747008;80;21066;-57
2021/12/10 02:41:15;;;;;;;6.03;4.10;;;;;;;3.81;91.35;99557.20;1744121;80;21141;-56
2021/12/10 02:43:42;;;;;;;4.87;3.77;;;;;;;3.83;91.19;99557.17;1746845;80;21058;-53
2021/12/10 02:46:08;;;;;;;3.60;3.20;;;;;;;3.83;91.15;99558.51;1744131;80;21106;-54
2021/12/10 02:48:35;;;;;;;5.10;3.77;;;;;;;3.84;91.20;99554.91;1748179;80;21070;-57
2021/12/10 02:51:02;;;;;;;4.83;3.50;;;;;;;3.85;91.19;99550.87;1744957;80;21148;-54
2021/12/10 02:53:34;;;;;;;4.00;3.13;;;;;;;3.89;91.27;99547.70;1749525;80;21822;-56
2021/12/10 02:55:57;;;;;;;5.87;4.37;;;;;;;3.93;91.36;99556.89;1742250;80;21056;-53
2021/12/10 02:58:24;;;;;;;9.07;4.20;;;;;;;3.97;91.33;99551.92;1751594;80;21432;-53
2021/12/10 03:01:13;;;;;;;4.83;3.80;;;;;;;3.98;91.28;99540.36;1746217;80;21022;-56
2021/12/10 03:03:40;;;;;;;5.67;3.77;;;;;;;3.98;91.34;99547.02;1747851;80;21017;-54
2021/12/10 03:06:10;;;;;;;5.87;4.20;;;;;;;4.00;91.26;99549.16;1749734;80;21102;-53
2021/12/10 03:08:38;;;;;;;4.77;4.03;;;;;;;3.99;91.19;99561.22;1684987;83;21449;-56
2021/12/10 03:11:04;;;;;;;9.67;6.13;;;;;;;3.99;91.21;99557.22;1742350;80;21086;-53
2021/12/10 03:13:31;;;;;;;16.97;7.53;;;;;;;4.00;91.20;99563.81;1741794;80;21053;-54
2021/12/10 03:15:57;;;;;;;18.33;7.67;;;;;;;4.02;91.24;99559.78;1745428;80;21077;-54
2021/12/10 03:18:24;;;;;;;14.80;7.20;;;;;;;4.04;91.28;99567.29;1741363;80;21150;-55
2021/12/10 03:20:50;;;;;;;7.57;5.60;;;;;;;4.06;91.30;99562.81;1744722;80;21114;-53
2021/12/10 03:23:16;;;;;;;6.33;4.77;;;;;;;4.08;91.32;99558.33;1747439;80;21386;-54
2021/12/10 03:25:43;;;;;;;5.67;5.07;;;;;;;4.11;91.40;99551.11;1746968;80;21151;-56
2021/12/10 03:28:10;;;;;;;5.10;4.60;;;;;;;4.14;91.37;99556.38;1746554;80;21136;-55
2021/12/10 03:30:41;;;;;;;7.93;5.90;;;;;;;4.14;91.32;99552.37;1742751;80;21122;-52
2021/12/10 03:33:07;;;;;;;8.20;6.27;;;;;;;4.15;91.37;99551.92;1742606;80;21376;-55
2021/12/10 03:35:41;;;;;;;10.37;6.80;;;;;;;4.17;91.41;99552.73;1744086;80;21401;-56
2021/12/10 03:38:05;;;;;;;7.43;4.80;;;;;;;4.18;91.38;99555.36;1726305;80;21054;-53
2021/12/10 03:40:32;;;;;;;4.93;4.20;;;;;;;4.19;91.35;99543.80;1744179;80;21072;-56
2021/12/10 03:43:01;;;;;;;5.03;3.87;;;;;;;4.21;91.38;99553.55;1743440;80;21108;-57
2021/12/10 03:45:35;;;;;;;4.60;3.47;;;;;;;4.24;91.36;99564.14;1749269;80;20845;-54
2021/12/10 03:48:03;;;;;;;5.67;4.77;;;;;;;4.25;91.43;99560.56;1748175;80;20949;-54
2021/12/10 03:50:31;;;;;;;5.93;4.03;;;;;;;4.27;91.50;99564.03;1666428;84;21019;-55
2021/12/10 03:52:58;;;;;;;5.47;4.07;;;;;;;4.30;91.62;99559.52;1750368;80;20963;-57
2021/12/10 03:55:25;;;;;;;6.20;5.03;;;;;;;4.34;91.67;99569.65;1746142;80;21093;-54
2021/12/10 03:57:52;;;;;;;7.43;5.00;;;;;;;4.37;91.60;99569.55;1749426;80;20912;-55
2021/12/10 04:00:21;;;;;;;5.97;4.53;;;;;;;4.40;91.59;99566.81;1748882;80;22013;-53
2021/12/10 04:02:48;;;;;;;6.47;5.67;;;;;;;4.42;91.56;99568.98;1708285;82;20964;-55
2021/12/10 04:05:15;;;;;;;6.27;5.27;;;;;;;4.44;91.54;99565.34;1751089;80;20919;-56
2021/12/10 04:07:41;;;;;;;7.77;5.57;;;;;;;4.46;91.54;99561.31;1751491;80;21070;-52
2021/12/10 04:10:09;;;;;;;9.07;7.13;;;;;;;4.45;91.49;99563.10;1749969;80;22028;-55
2021/12/10 04:12:37;;;;;;;8.00;5.37;;;;;;;4.45;91.50;99563.10;1749714;80;20956;-54
2021/12/10 04:15:05;;;;;;;8.00;5.43;;;;;;;4.46;91.47;99554.20;1749108;80;20907;-56
2021/12/10 04:17:33;;;;;;;9.30;4.50;;;;;;;4.47;91.42;99550.62;1749685;80;20981;-54
2021/12/10 04:20:00;;;;;;;6.33;4.27;;;;;;;4.47;91.34;99545.74;1748047;80;21103;-54
2021/12/10 04:22:32;;;;;;;6.70;4.50;;;;;;;4.45;91.28;99548.45;1724831;81;20969;-57
2021/12/10 04:24:55;;;;;;;5.37;4.37;;;;;;;4.46;91.29;99553.32;1712145;81;20930;-55
2021/12/10 04:27:21;;;;;;;8.27;5.97;;;;;;;4.46;91.23;99554.20;1713571;81;20907;-56
2021/12/10 04:29:49;;;;;;;6.47;5.30;;;;;;;4.47;91.19;99561.73;1680935;82;20977;-57
2021/12/10 04:32:16;;;;;;;6.53;5.83;;;;;;;4.47;91.18;99563.95;1679977;83;21128;-57
2021/12/10 04:36:09;;;;;;;10.63;7.67;;;;;;;4.50;91.13;99550.55;1777491;78;22647;-53
2021/12/10 04:38:36;;;;;;;8.27;6.63;;;;;;;4.47;91.10;99540.41;1738059;80;21051;-53
2021/12/10 04:41:05;;;;;;;9.73;7.07;;;;;;;4.46;90.97;99537.33;1737547;80;22356;-54
2021/12/10 04:43:34;;;;;;;6.97;5.83;;;;;;;4.45;90.86;99537.78;1737837;80;21053;-57
2021/12/10 04:46:00;;;;;;;8.07;5.50;;;;;;;4.46;90.93;99538.20;1743766;80;21271;-54
2021/12/10 04:48:28;;;;;;;9.57;7.07;;;;;;;4.46;90.92;99528.87;1710089;81;21525;-56
2021/12/10 04:50:55;;;;;;;9.20;7.10;;;;;;;4.50;90.91;99520.35;1705987;81;21494;-57
2021/12/10 04:53:21;;;;;;;9.53;7.30;;;;;;;4.51;90.91;99522.07;1714391;81;22452;-56
2021/12/10 04:55:48;;;;;;;8.97;6.53;;;;;;;4.52;90.84;99526.03;1707703;81;21009;-58
2021/12/10 04:58:15;;;;;;;12.00;8.50;;;;;;;4.55;90.82;99531.75;1676837;82;21064;-55
2021/12/10 05:00:46;;;;;;;13.40;9.23;;;;;;;4.53;90.77;99529.13;1678744;82;21360;-56
2021/12/10 05:03:12;;;;;;;15.20;9.93;;;;;;;4.53;90.77;99532.24;1674376;82;21041;-55
2021/12/10 05:05:40;;;;;;;11.30;8.70;;;;;;;4.52;90.70;99534.03;1676762;82;21133;-56
2021/12/10 05:08:06;;;;;;;11.47;8.60;;;;;;;4.52;90.58;99539.36;1678052;82;21069;-56
2021/12/10 05:10:35;;;;;;;12.97;9.63;;;;;;;4.51;90.50;99530.94;1683121;82;20942;-56
2021/12/10 05:13:01;;;;;;;16.63;9.83;;;;;;;4.50;90.53;99530.55;1676691;82;21142;-58
2021/12/10 05:15:30;;;;;;;14.83;9.20;;;;;;;4.50;90.52;99527.02;1679614;82;21485;-58
2021/12/10 05:17:57;;;;;;;10.47;8.23;;;;;;;4.51;90.57;99532.73;1683480;82;21110;-54
2021/12/10 05:20:31;;;;;;;12.40;8.73;;;;;;;4.53;90.59;99529.58;1681441;82;21601;-56
2021/12/10 05:22:57;;;;;;;14.67;9.33;;;;;;;4.54;90.55;99545.53;1675858;82;21101;-56
2021/12/10 05:25:26;;;;;;;12.93;9.57;;;;;;;4.56;90.57;99549.04;1679593;82;21331;-57
2021/12/10 05:27:52;;;;;;;11.60;8.80;;;;;;;4.61;90.54;99557.36;1677336;82;21124;-57
2021/12/10 05:30:20;;;;;;;15.63;9.90;;;;;;;4.62;90.56;99561.77;1679502;82;21154;-57
2021/12/10 05:32:47;;;;;;;13.93;9.97;;;;;;;4.61;90.46;99566.23;1684474;82;21056;-55
2021/12/10 05:35:13;;;;;;;12.70;9.30;;;;;;;4.60;90.41;99564.47;1672068;82;21111;-58
2021/12/10 05:37:40;;;;;;;14.40;9.37;;;;;;;4.62;90.41;99565.77;1663202;83;21125;-58
2021/12/10 05:40:10;;;;;;;11.90;9.03;;;;;;;4.63;90.37;99571.52;1663908;83;21455;-58
2021/12/10 05:42:36;;;;;;;13.70;9.77;;;;;;;4.63;90.35;99575.52;1666371;83;21933;-55
2021/12/10 05:45:04;;;;;;;11.07;8.50;;;;;;;4.65;90.41;99577.24;1668596;83;21069;-56
2021/12/10 05:47:30;;;;;;;15.83;9.97;;;;;;;4.67;90.37;99577.20;1662713;83;21145;-57
2021/12/10 05:49:56;;;;;;;14.60;10.67;;;;;;;4.70;90.43;99582.43;1665619;83;21602;-55
2021/12/10 05:52:23;;;;;;;16.23;10.80;;;;;;;4.71;90.41;99582.86;1711256;81;21613;-57
2021/12/10 05:54:52;;;;;;;17.00;12.03;;;;;;;4.70;90.31;99579.77;1711411;81;22383;-58
2021/12/10 05:57:19;;;;;;;17.97;10.53;;;;;;;4.68;90.27;99584.29;1714874;81;21130;-58
2021/12/10 05:59:45;;;;;;;15.27;10.50;;;;;;;4.68;90.25;99582.47;1710802;81;21089;-56
2021/12/10 06:02:12;;;;;;;17.13;11.23;;;;;;;4.68;90.21;99582.47;1709165;81;21046;-55
2021/12/10 06:04:38;;;;;;;15.83;10.63;;;;;;;4.69;90.24;99580.22;1711290;81;21038;-56
2021/12/10 06:07:05;;;;;;;15.13;11.40;;;;;;;4.71;90.23;99581.52;1710166;81;21090;-58
2021/12/10 06:09:32;;;;;;;18.20;10.50;;;;;;;4.73;90.21;99582.36;1709319;81;21219;-57
2021/12/10 06:11:59;;;;;;;16.43;12.00;;;;;;;4.74;90.21;99585.45;1675508;83;21054;-56
2021/12/10 06:14:25;;;;;;;17.57;13.37;;;;;;;4.75;90.17;99581.87;1680586;83;21403;-56
2021/12/10 06:16:54;;;;;;;18.13;12.73;;;;;;;4.75;90.22;99573.41;1676433;83;21394;-57
2021/12/10 06:19:20;;;;;;;20.63;14.97;;;;;;;4.77;90.25;99572.01;1675532;83;21144;-57
2021/12/10 06:21:46;;;;;;;17.80;12.47;;;;;;;4.77;90.21;99580.89;1675059;83;21038;-55
2021/12/10 06:24:12;;;;;;;22.40;14.90;;;;;;;4.77;90.13;99580.01;1675792;83;21030;-56
2021/12/10 06:26:39;;;;;;;20.00;15.10;;;;;;;4.77;90.06;99583.55;1668496;83;21551;-54
2021/12/10 06:29:06;;;;;;;21.10;14.77;;;;;;;4.77;90.07;99580.89;1668238;83;21574;-54
2021/12/10 06:31:33;;;;;;;17.17;13.27;;;;;;;4.78;90.11;99576.43;1670765;83;21147;-54
2021/12/10 06:33:59;;;;;;;18.53;12.00;;;;;;;4.80;90.14;99586.60;1675656;83;21287;-53
2021/12/10 06:36:26;;;;;;;17.30;13.07;;;;;;;4.82;90.11;99583.44;1678017;83;20919;-56
2021/12/10 06:38:52;;;;;;;16.90;12.40;;;;;;;4.84;90.22;99578.50;1691352;82;20954;-55
2021/12/10 06:41:18;;;;;;;15.73;11.00;;;;;;;4.87;90.19;99574.39;1680834;83;20982;-56
2021/12/10 06:43:45;;;;;;;16.77;11.90;;;;;;;4.90;90.13;99577.44;1663273;83;21095;-54
2021/12/10 06:46:12;;;;;;;14.90;11.00;;;;;;;4.88;90.04;99576.59;1674505;83;20898;-56
2021/12/10 06:48:38;;;;;;;14.63;11.47;;;;;;;4.89;89.94;99579.69;1676528;83;20990;-55
2021/12/10 06:51:09;;;;;;;15.60;10.27;;;;;;;4.89;89.89;99578.35;1682205;83;20970;-55
2021/12/10 06:53:38;;;;;;;12.93;9.57;;;;;;;4.90;89.86;99570.77;1677213;83;20910;-54
2021/12/10 06:56:05;;;;;;;9.87;8.37;;;;;;;4.89;89.79;99573.02;1680096;83;21509;-56
2021/12/10 06:58:33;;;;;;;11.57;8.83;;;;;;;4.91;89.85;99572.52;1676614;83;21495;-57
2021/12/10 07:01:05;;;;;;;12.00;9.07;;;;;;;4.94;89.88;99580.41;1678614;83;20986;-58
2021/12/10 07:03:32;;;;;;;14.70;9.83;;;;;;;4.95;89.84;99572.84;1674966;83;20962;-54
2021/12/10 07:05:59;;;;;;;15.57;9.60;;;;;;;4.97;89.74;99575.01;1677201;83;21915;-56
2021/12/10 07:08:27;;;;;;;9.93;8.43;;;;;;;4.97;89.73;99565.67;1677162;83;21438;-55
2021/12/10 07:10:54;;;;;;;14.10;9.70;;;;;;;4.97;89.69;99560.34;1678972;83;20954;-57
2021/12/10 07:13:21;;;;;;;12.20;8.77;;;;;;;4.97;89.60;99565.67;1674642;83;20978;-56
2021/12/10 07:15:48;;;;;;;14.40;9.50;;;;;;;4.96;89.63;99562.58;1675041;83;20947;-56
2021/12/10 07:18:18;;;;;;;11.50;9.40;;;;;;;4.95;89.63;99556.38;1678035;83;20919;-54
2021/12/10 07:20:44;;;;;;;10.97;9.30;;;;;;;4.98;89.70;99560.75;1679881;83;21883;-55
2021/12/10 07:23:10;;;;;;;13.47;9.03;;;;;;;5.01;89.72;99554.47;1675386;83;22082;-57
2021/12/10 07:25:37;;;;;;;13.43;9.40;;;;;;;5.02;89.78;99549.06;1675735;83;21881;-56
2021/12/10 07:28:04;;;;;;;13.83;9.77;;;;;;;5.07;89.79;99529.81;1674622;83;22464;-55
2021/12/10 07:30:31;;;;;;;12.43;8.90;;;;;;;5.12;89.78;99521.20;1674692;83;22387;-56
2021/12/10 07:32:59;;;;;;;10.03;7.50;;;;;;;5.13;89.73;99520.73;1669776;83;21112;-55
2021/12/10 07:35:26;;;;;;;10.50;8.07;;;;;;;5.15;89.64;99512.23;1673180;83;21078;-53
2021/12/10 07:37:52;;;;;;;12.00;8.80;;;;;;;5.18;89.63;99521.04;1663764;83;21443;-54
2021/12/10 07:40:22;;;;;;;10.40;7.27;;;;;;;5.21;89.63;99514.25;1665187;83;22164;-58
2021/12/10 07:42:48;;;;;;;13.60;8.77;;;;;;;5.24;89.59;99522.18;1662197;83;21101;-55
2021/12/10 07:45:17;;;;;;;9.60;7.80;;;;;;;5.27;89.51;99515.89;1661075;83;21159;-55
2021/12/10 07:47:44;;;;;;;11.83;8.53;;;;;;;5.29;89.47;99521.56;1664912;83;21535;-54
2021/12/10 07:50:13;;;;;;;15.40;8.80;;;;;;;5.32;89.45;99528.61;1663169;83;21610;-57
2021/12/10 07:52:40;;;;;;;13.87;9.90;;;;;;;5.35;89.43;99541.00;1661996;83;21081;-56
2021/12/10 07:55:11;;;;;;;14.70;11.30;;;;;;;5.37;89.35;99531.13;1661247;83;21170;-57
2021/12/10 07:57:40;;;;;;;16.57;10.77;;;;;;;5.35;89.28;99543.21;1667903;83;20892;-55
2021/12/10 08:00:13;;;;;;;16.77;11.07;;;;;;;5.35;89.20;99545.00;1664394;83;20967;-58
2021/12/10 08:02:42;;;;;;;15.37;10.03;;;;;;;5.35;89.19;99548.55;1713506;81;21022;-55
2021/12/10 08:05:09;;;;;;;13.23;9.83;;;;;;;5.35;89.26;99545.00;1710782;81;21110;-56
2021/12/10 08:07:35;;;;;;;18.47;11.43;;;;;;;5.38;89.32;99544.43;1714196;81;21253;-56
2021/12/10 08:10:03;;;;;;;16.37;10.67;;;;;;;5.40;89.33;99536.38;1713209;81;22232;-59
2021/12/10 08:12:30;;;;;;;21.57;11.70;;;;;;;5.43;89.38;99529.63;1712371;81;20911;-57
2021/12/10 08:14:56;;;;;;;14.67;11.10;;;;;;;5.45;89.31;99535.77;1718780;81;20900;-55
2021/12/10 08:17:24;;;;;;;16.67;12.90;;;;;;;5.47;89.29;99526.80;1712500;81;21097;-56
2021/12/10 08:19:51;;;;;;;19.50;13.93;;;;;;;5.51;89.32;99510.23;1714319;81;21643;-54
2021/12/10 08:22:18;;;;;;;18.67;13.93;;;;;;;5.51;89.21;99511.12;1709691;81;22339;-56
2021/12/10 08:24:44;;;;;;;19.35;15.15;;;;;;;5.52;89.21;99526.22;1707317;81;22306;-58
2021/12/10 08:27:11;;;;;;;20.50;14.90;;;;;;;5.55;89.29;99532.77;1709223;81;21006;-57
2021/12/10 08:29:37;;;;;;;26.73;15.00;;;;;;;5.57;89.25;99529.60;1712023;81;21584;-54
2021/12/10 08:32:04;;;;;;;17.73;14.00;;;;;;;5.58;89.22;99518.00;1710756;81;21495;-56
2021/12/10 08:34:31;;;;;;;15.03;12.53;;;;;;;5.62;89.18;99521.43;1713409;81;21149;-55
2021/12/10 08:36:57;;;;;;;17.97;12.90;;;;;;;5.63;89.15;99529.86;1719871;80;21156;-54
2021/12/10 08:39:25;;;;;;;19.77;13.37;;;;;;;5.64;89.13;99528.94;1722552;80;21645;-54
2021/12/10 08:41:51;;;;;;;19.87;12.67;;;;;;;5.64;89.11;99531.15;1719147;80;21574;-55
2021/12/10 08:44:17;;;;;;;16.50;11.77;;;;;;;5.67;89.11;99514.16;1721124;80;21033;-56
2021/12/10 08:46:44;;;;;;;13.85;10.20;;;;;;;5.71;89.11;99510.45;1723326;82;21125;-55
2021/12/10 08:49:11;;;;;;;16.87;12.10;;;;;;;5.74;89.09;99505.02;1722437;82;21038;-56
2021/12/10 08:51:44;;;;;;;17.17;11.63;;;;;;;5.78;89.08;99502.69;1723741;82;21084;-55
2021/12/10 08:54:12;;;;;;;15.48;12.00;;;;;;;5.81;89.04;99501.23;1719877;80;21465;-55
2021/12/10 08:56:39;;;;;;;14.68;11.18;;;;;;;5.83;89.01;99503.85;1719780;82;21049;-54
2021/12/10 08:59:06;;;;;;;13.85;10.68;;;;;;;5.84;88.98;99496.25;1724451;81;21809;-56
2021/12/10 09:01:36;;;;;;;11.90;9.78;;;;;;;5.86;88.95;99481.93;1721828;80;21080;-56
2021/12/10 09:04:04;;;;;;;12.00;10.32;;;;;;;5.91;88.91;99487.14;1722514;82;21471;-53
2021/12/10 09:06:33;;;;;;;14.58;9.00;;;;;;;5.94;88.85;99475.91;1727729;82;20954;-57
2021/12/10 09:09:00;;;;;;;9.63;7.97;;;;;;;5.97;88.78;99486.47;1725118;82;20997;-57
2021/12/10 09:11:26;;;;;;;9.63;8.63;;;;;;;6.00;88.78;99469.47;1723493;82;21076;-55
2021/12/10 09:13:53;;;;;;;11.70;8.65;;;;;;;6.03;88.70;99471.58;1723697;82;21112;-55
2021/12/10 09:16:25;;;;;;;11.18;10.08;;;;;;;6.05;88.55;99471.05;1729167;82;21489;-55
2021/12/10 09:18:52;;;;;;;11.60;9.05;;;;;;;6.06;88.51;99475.47;1725523;82;21502;-57
2021/12/10 09:21:18;;;;;;;14.90;9.33;;;;;;;6.08;88.41;99464.73;1728746;82;20863;-53
2021/12/10 09:23:45;;;;;;;11.00;8.60;;;;;;;6.09;88.30;99461.14;1727728;82;21089;-55
2021/12/10 09:26:15;;;;;;;9.40;7.78;;;;;;;6.08;88.24;99456.72;1727274;82;20922;-54
2021/12/10 09:28:42;;;;;;;10.60;8.65;;;;;;;6.08;88.25;99452.24;1727554;82;21001;-55
2021/12/10 09:31:09;;;;;;;10.80;8.25;;;;;;;6.11;88.20;99456.62;1727588;81;20942;-57
2021/12/10 09:33:36;;;;;;;10.98;8.63;;;;;;;6.11;88.10;99459.29;1726478;82;20898;-54
2021/12/10 09:36:02;;;;;;;9.35;8.03;;;;;;;6.11;88.10;99461.97;1724749;82;21089;-54
2021/12/10 09:38:28;;;;;;;12.07;9.25;;;;;;;6.13;88.11;99452.53;1717461;81;20903;-57
2021/12/10 09:40:58;;;;;;;14.38;8.90;;;;;;;6.12;88.05;99442.80;1720517;82;20879;-57
2021/12/10 09:43:25;;;;;;;10.43;8.18;;;;;;;6.11;87.95;99444.59;1720966;82;20935;-57
2021/12/10 09:45:52;;;;;;;9.03;8.13;;;;;;;6.11;87.92;99451.27;1722512;82;21140;-56
2021/12/10 09:48:18;;;;;;;10.70;7.97;;;;;;;6.11;87.92;99445.05;1720547;81;22192;-54
2021/12/10 09:50:50;;;;;;;9.75;8.23;;;;;;;6.12;87.92;99441.46;1719900;82;20923;-57
2021/12/10 09:53:17;;;;;;;11.80;8.80;;;;;;;6.13;87.87;99438.70;1721261;81;20975;-57
2021/12/10 09:55:44;;;;;;;12.75;10.72;;;;;;;6.14;87.89;99443.59;1720660;82;20950;-56
2021/12/10 09:58:10;;;;;;;15.58;11.05;;;;;;;6.16;87.88;99434.60;1719337;80;20930;-55
2021/12/10 10:00:44;;;;;;;14.10;11.18;;;;;;;6.18;87.85;99437.23;1721850;82;21058;-54
2021/12/10 10:03:12;;;;;;;15.85;11.83;;;;;;;6.16;87.76;99439.95;1723229;82;21440;-55
2021/12/10 10:05:41;;;;;;;17.75;12.10;;;;;;;6.18;87.76;99430.55;1718847;82;20871;-54
2021/12/10 10:08:10;;;;;;;16.60;11.73;;;;;;;6.17;87.64;99441.70;1719248;82;21421;-56
2021/12/10 10:10:37;;;;;;;16.77;12.00;;;;;;;6.16;87.65;99441.75;1718857;82;20934;-54
2021/12/10 10:13:05;;;;;;;16.57;12.07;;;;;;;6.16;87.63;99439.07;1720567;82;21076;-54
2021/12/10 10:15:34;;;;;;;20.72;12.07;;;;;;;6.14;87.65;99435.58;1721406;81;21658;-54
2021/12/10 10:18:04;;;;;;;15.63;13.10;;;;;;;6.14;87.62;99430.23;1715617;82;21062;-57
2021/12/10 10:20:32;;;;;;;17.23;12.88;;;;;;;6.14;87.67;99415.53;1721465;82;20915;-54
2021/12/10 10:22:58;;;;;;;19.12;14.80;;;;;;;6.14;87.68;99419.08;1721384;82;21030;-55
2021/12/10 10:25:26;;;;;;;19.70;14.10;;;;;;;6.12;87.65;99419.63;1715894;81;22620;-58
2021/12/10 10:27:52;;;;;;;18.73;13.68;;;;;;;6.11;87.60;99412.98;1714688;82;21053;-56
2021/12/10 10:30:28;;;;;;;17.17;13.60;;;;;;;6.10;87.64;99412.58;1719424;82;21038;-55
2021/12/10 10:32:55;;;;;;;18.27;12.82;;;;;;;6.11;87.65;99403.64;1717494;80;21097;-55
2021/12/10 10:35:27;;;;;;;20.23;13.08;;;;;;;6.12;87.73;99406.72;1721802;82;20922;-54
2021/12/10 10:37:54;;;;;;;18.17;14.45;;;;;;;6.13;87.73;99401.30;1726259;81;21077;-55
2021/12/10 10:40:24;;;;;;;19.50;14.93;;;;;;;6.14;87.73;99399.50;1724751;82;21049;-55
2021/12/10 10:42:50;;;;;;;24.55;14.45;;;;;;;6.14;87.72;99389.68;1730010;80;21042;-55
2021/12/10 10:45:21;;;;;;;19.42;15.63;;;;;;;6.12;87.70;99384.88;1725174;80;21100;-54
2021/12/10 10:47:48;;;;;;;16.30;12.88;;;;;;;6.11;87.68;99375.58;1724628;82;21495;-56
2021/12/10 10:50:25;;;;;;;17.23;13.43;;;;;;;6.07;87.68;99366.33;1723733;82;21558;-56
2021/12/10 10:52:56;;;;;;;18.00;13.48;;;;;;;6.05;87.75;99361.95;1725483;81;21093;-56
2021/12/10 10:55:28;;;;;;;20.12;13.30;;;;;;;6.04;87.83;99365.09;1723334;80;21061;-58
2021/12/10 10:58:01;;;;;;;18.12;14.10;;;;;;;6.05;87.86;99365.97;1723845;82;20886;-57
2021/12/10 11:00:50;;;;;;;20.80;14.18;;;;;;;6.05;87.90;99369.51;1723211;82;21058;-55
2021/12/10 11:03:15;;;;;;;18.52;13.55;;;;;;;6.08;87.91;99372.55;1725321;80;21115;-55
2021/12/10 11:05:58;;;;;;;22.22;14.58;;;;;;;6.09;87.90;99370.28;1725567;82;20919;-57
2021/12/10 11:08:39;;;;;;;17.62;14.95;;;;;;;6.09;87.89;99368.95;1728742;82;20863;-57
2021/12/10 11:11:16;;;;;;;22.35;16.55;;;;;;;6.10;87.95;99369.82;1726308;82;21082;-55
2021/12/10 11:13:46;;;;;;;21.77;16.23;;;;;;;6.07;87.94;99373.01;1729082;80;20922;-56
2021/12/10 11:16:19;;;;;;;19.00;15.85;;;;;;;6.06;87.94;99363.24;1725142;82;21600;-57
2021/12/10 11:18:54;;;;;;;18.65;13.62;;;;;;;6.05;87.96;99368.17;1724409;82;20887;-56
2021/12/10 11:21:50;;;;;;;24.00;16.02;;;;;;;6.04;88.06;99353.53;1728383;80;20954;-58
2021/12/10 11:24:38;;;;;;;23.95;16.12;;;;;;;6.03;88.16;99355.36;1696066;82;21127;-55
2021/12/10 11:27:08;;;;;;;17.23;15.18;;;;;;;6.05;88.29;99352.60;1708958;82;20962;-55
2021/12/10 11:30:05;;;;;;;20.62;15.98;;;;;;;6.09;88.28;99344.90;1724435;82;21097;-54
2021/12/10 11:32:42;;;;;;;20.15;14.70;;;;;;;6.11;88.28;99355.54;1724118;80;21123;-56
2021/12/10 11:35:24;;;;;;;25.55;18.12;;;;;;;6.12;88.36;99343.47;1720951;82;22289;-56
2021/12/10 11:38:01;;;;;;;23.90;17.05;;;;;;;6.16;88.39;99338.86;1711233;81;21049;-55
2021/12/10 11:40:46;;;;;;;26.80;18.37;;;;;;;6.15;88.36;99335.77;1710073;82;20966;-54
2021/12/10 11:48:55;;;;;;;24.00;17.35;;;;;;;6.18;88.43;99286.23;1714431;81;21028;-55
2021/12/10 11:51:36;;;;;;;26.23;18.45;;;;;;;6.19;88.46;99288.86;1711314;81;21258;-56
2021/12/10 11:54:22;;;;;;;20.77;16.67;;;;;;;6.21;88.51;99286.97;1710724;81;21050;-56
2021/12/10 11:57:03;;;;;;;24.90;17.20;;;;;;;6.25;88.51;99294.42;1710668;81;21145;-58